Time;durP1;ratioP1;P1;durP2;ratioP2;P2;SDS_P1;SDS_P2;PMS_P1;PMS_P2;Temp;Humidity;BMP_temperature;BMP_pressure;BME280_temperature;BME280_humidity;BME280_pressure;Samples;Min_cycle;Max_cycle;Signal;HPM_P1;HPM_P2
2024/05/02 00:01:24;;;;;;;6.20;5.40;;;;;;;17.85;78.65;98798.97;5381896;26;20232;-69
2024/05/02 00:03:49;;;;;;;7.60;5.43;;;;;;;17.67;78.97;98777.34;5368678;26;20229;-70
2024/05/02 00:06:14;;;;;;;7.63;5.23;;;;;;;17.43;80.18;98773.56;5367754;26;21054;-69
2024/05/02 00:08:40;;;;;;;6.27;5.67;;;;;;;17.31;81.27;98790.69;5381834;26;20243;-69
2024/05/02 00:14:27;;;;;;;4.93;4.53;;;;;;;17.37;81.45;98783.13;5369663;26;20269;-69
2024/05/02 00:16:52;;;;;;;6.83;6.13;;;;;;;17.63;79.73;98781.81;5382523;26;20458;-69
2024/05/02 00:19:17;;;;;;;6.90;5.50;;;;;;;17.71;79.79;98781.22;5382769;26;20282;-69
2024/05/02 00:21:43;;;;;;;7.43;6.67;;;;;;;17.26;81.34;98759.22;5383003;26;20228;-69
2024/05/02 00:24:08;;;;;;;7.83;6.17;;;;;;;17.72;79.45;98756.91;5382756;26;20232;-69
2024/05/02 00:26:33;;;;;;;7.63;5.70;;;;;;;18.06;78.27;98770.81;5382844;26;20228;-69
2024/05/02 00:28:58;;;;;;;6.63;5.40;;;;;;;18.08;77.67;98765.78;5381158;26;20247;-69
2024/05/02 00:31:24;;;;;;;5.70;5.20;;;;;;;17.97;77.57;98751.06;5362326;26;20353;-69
2024/05/02 00:33:49;;;;;;;7.30;5.10;;;;;;;17.32;80.04;98736.53;5372426;26;20639;-69
2024/05/02 00:36:14;;;;;;;7.00;5.57;;;;;;;17.55;79.90;98769.31;5382564;26;20278;-69
2024/05/02 00:38:39;;;;;;;7.83;5.70;;;;;;;17.55;80.18;98779.66;5361876;26;20337;-69
2024/05/02 00:41:05;;;;;;;6.77;5.30;;;;;;;17.41;80.21;98748.75;5382770;26;20239;-69
2024/05/02 00:43:30;;;;;;;6.70;6.10;;;;;;;17.35;79.97;98749.91;5359825;26;20713;-69
2024/05/02 00:45:56;;;;;;;8.27;5.63;;;;;;;17.57;79.39;98764.25;5367216;26;20333;-69
2024/05/02 00:48:21;;;;;;;6.37;5.87;;;;;;;17.54;79.53;98766.81;5382708;26;20244;-69
2024/05/02 00:50:47;;;;;;;6.67;5.73;;;;;;;17.67;78.92;98743.81;5373807;26;20232;-69
2024/05/02 00:53:14;;;;;;;7.50;6.03;;;;;;;17.80;77.32;98742.31;5382206;26;20333;-69
2024/05/02 00:55:44;;;;;;;5.90;5.40;;;;;;;18.13;76.96;98763.78;5365956;26;20266;-69
2024/05/02 00:58:10;;;;;;;10.07;5.70;;;;;;;17.91;76.96;98747.50;5345732;26;21011;-69
2024/05/02 01:00:35;;;;;;;6.20;5.70;;;;;;;17.64;78.70;98754.75;5381143;26;20466;-69
2024/05/02 01:03:00;;;;;;;6.13;5.63;;;;;;;17.62;78.71;98760.59;5382174;26;20508;-69
2024/05/02 01:05:26;;;;;;;6.70;5.20;;;;;;;17.40;79.58;98757.44;5382406;26;20227;-69
2024/05/02 01:07:51;;;;;;;6.30;4.87;;;;;;;17.41;79.91;98761.88;5382178;26;20228;-69
2024/05/02 01:10:16;;;;;;;8.13;4.90;;;;;;;17.37;79.89;98749.63;5382443;26;20278;-69
2024/05/02 01:12:42;;;;;;;5.90;5.30;;;;;;;17.23;80.18;98747.50;5382289;26;20760;-69
2024/05/02 01:15:07;;;;;;;6.33;4.90;;;;;;;17.40;79.54;98763.84;5382392;26;20267;-69
2024/05/02 01:17:33;;;;;;;5.87;5.37;;;;;;;17.41;79.35;98747.94;5382140;26;20705;-69
2024/05/02 01:19:58;;;;;;;5.93;5.40;;;;;;;17.38;79.38;98746.56;5382003;26;20232;-69
2024/05/02 01:22:30;;;;;;;6.00;5.27;;;;;;;17.65;78.44;98760.03;5382077;26;20243;-69
2024/05/02 01:24:55;;;;;;;6.60;5.67;;;;;;;17.75;78.02;98768.31;5381714;26;20232;-69
2024/05/02 01:27:20;;;;;;;6.30;5.70;;;;;;;17.36;79.57;98762.75;5382056;26;20510;-69
2024/05/02 01:29:45;;;;;;;7.97;5.60;;;;;;;17.12;80.20;98739.47;5360055;26;20228;-69
2024/05/02 01:32:11;;;;;;;6.47;5.60;;;;;;;17.13;80.40;98755.91;5351096;26;20236;-69
2024/05/02 01:34:36;;;;;;;9.03;5.17;;;;;;;16.96;81.04;98743.50;5381770;26;20314;-69
2024/05/02 01:37:01;;;;;;;8.53;6.30;;;;;;;16.76;82.20;98736.06;5388146;26;20606;-69
2024/05/02 01:39:26;;;;;;;5.43;4.93;;;;;;;16.90;81.97;98750.22;5382485;26;20273;-69
2024/05/02 01:41:52;;;;;;;6.13;5.13;;;;;;;17.07;80.92;98745.09;5374780;26;20582;-69
2024/05/02 01:44:17;;;;;;;5.73;5.07;;;;;;;17.16;80.41;98752.56;5381767;26;20236;-69
2024/05/02 01:46:42;;;;;;;8.07;5.83;;;;;;;17.25;79.89;98744.41;5388619;26;20267;-69
2024/05/02 01:49:08;;;;;;;4.90;4.50;;;;;;;17.34;80.29;98759.41;5381714;26;20690;-69
2024/05/02 01:51:33;;;;;;;6.80;5.60;;;;;;;16.75;81.73;98737.19;5381471;26;20741;-69
2024/05/02 01:53:58;;;;;;;8.03;6.13;;;;;;;16.38;84.23;98734.81;5381657;26;20274;-69
2024/05/02 01:56:23;;;;;;;8.87;5.20;;;;;;;16.27;84.46;98722.88;5381312;26;20583;-69
2024/05/02 01:58:49;;;;;;;6.10;5.60;;;;;;;16.33;84.41;98751.56;5349158;26;20266;-69
2024/05/02 02:01:14;;;;;;;7.03;6.37;;;;;;;16.37;84.74;98742.34;5350488;26;20827;-69
2024/05/02 02:03:39;;;;;;;6.10;5.53;;;;;;;16.08;86.50;98742.16;5380184;26;20288;-69
2024/05/02 02:06:05;;;;;;;6.17;5.67;;;;;;;16.02;86.51;98736.91;5364862;26;20249;-69
2024/05/02 02:08:30;;;;;;;5.77;5.33;;;;;;;15.78;88.20;98736.66;5373067;26;20705;-69
2024/05/02 02:10:55;;;;;;;9.23;6.30;;;;;;;15.74;88.48;98736.38;5381349;26;20231;-68
2024/05/02 02:13:20;;;;;;;6.77;6.23;;;;;;;16.03;87.46;98730.22;5381260;26;20674;-69
2024/05/02 02:15:46;;;;;;;6.73;6.13;;;;;;;16.04;86.81;98729.91;5381030;26;20278;-69
2024/05/02 02:18:11;;;;;;;6.20;5.70;;;;;;;16.13;86.34;98730.16;5373999;26;20266;-69
2024/05/02 02:20:36;;;;;;;7.23;6.47;;;;;;;15.91;87.35;98721.31;5380894;26;20294;-69
2024/05/02 02:23:01;;;;;;;7.03;5.77;;;;;;;15.69;87.93;98719.69;5381311;26;20224;-69
2024/05/02 02:25:27;;;;;;;5.90;5.50;;;;;;;16.25;85.46;98715.91;5380904;26;20278;-69
2024/05/02 02:27:52;;;;;;;7.00;5.97;;;;;;;16.66;83.53;98725.78;5381196;26;20227;-69
2024/05/02 02:30:17;;;;;;;6.70;6.20;;;;;;;16.29;84.69;98736.53;5381047;26;20232;-69
2024/05/02 02:32:42;;;;;;;6.53;5.87;;;;;;;15.68;87.81;98726.38;5374783;26;20709;-69
2024/05/02 02:35:08;;;;;;;7.07;6.13;;;;;;;15.52;89.37;98740.53;5381039;26;20806;-69
2024/05/02 02:37:34;;;;;;;6.50;5.87;;;;;;;15.92;87.61;98720.19;5380974;26;20227;-69
2024/05/02 02:39:59;;;;;;;6.63;5.60;;;;;;;16.22;85.10;98725.66;5380790;26;20251;-69
2024/05/02 02:42:25;;;;;;;6.73;6.03;;;;;;;16.28;85.00;98707.81;5369177;26;20576;-69
2024/05/02 02:44:50;;;;;;;7.87;5.90;;;;;;;16.42;84.20;98714.47;5380937;26;20244;-69
2024/05/02 02:47:15;;;;;;;5.90;5.40;;;;;;;16.70;82.31;98689.81;5376184;26;20286;-69
2024/05/02 02:49:40;;;;;;;6.53;5.77;;;;;;;16.53;83.03;98704.09;5380441;26;20599;-69
2024/05/02 02:52:06;;;;;;;6.37;5.97;;;;;;;16.68;82.80;98689.25;5380789;26;20329;-69
2024/05/02 02:54:31;;;;;;;6.33;5.33;;;;;;;17.17;80.53;98692.84;5380768;26;20236;-69
2024/05/02 02:56:56;;;;;;;6.87;6.27;;;;;;;17.10;80.97;98699.88;5380536;26;20282;-69
2024/05/02 02:59:21;;;;;;;7.30;5.40;;;;;;;16.30;83.41;98697.25;5379612;26;20232;-69
2024/05/02 03:01:47;;;;;;;5.87;5.40;;;;;;;15.49;88.43;98691.84;5359180;26;20240;-69
2024/05/02 03:04:15;;;;;;;5.93;5.53;;;;;;;15.75;87.33;98674.00;5380552;26;20231;-69
2024/05/02 03:06:40;;;;;;;7.27;6.57;;;;;;;16.34;84.25;98681.63;5380038;26;20721;-69
2024/05/02 03:09:05;;;;;;;6.37;5.87;;;;;;;16.19;84.66;98662.19;5380328;26;20538;-69
2024/05/02 03:11:30;;;;;;;6.00;5.60;;;;;;;16.29;83.27;98656.56;5380529;26;20228;-69
2024/05/02 03:13:56;;;;;;;6.67;6.13;;;;;;;15.59;87.50;98680.72;5380345;26;20270;-69
2024/05/02 03:16:21;;;;;;;7.07;6.37;;;;;;;14.99;90.21;98685.16;5380418;26;20236;-69
2024/05/02 03:18:46;;;;;;;6.37;5.90;;;;;;;14.72;92.26;98690.13;5380470;26;20278;-69
2024/05/02 03:21:12;;;;;;;6.10;5.67;;;;;;;14.32;93.52;98647.22;5383604;26;20332;-70
2024/05/02 03:23:41;;;;;;;6.90;6.30;;;;;;;14.80;92.76;98692.38;5383621;26;20282;-69
2024/05/02 03:26:09;;;;;;;8.90;6.47;;;;;;;14.72;92.63;98679.84;5381907;26;20244;-67
2024/05/02 03:28:35;;;;;;;6.20;5.70;;;;;;;15.03;91.36;98685.44;5369582;26;20504;-69
2024/05/02 03:31:01;;;;;;;7.03;6.53;;;;;;;15.68;88.67;98695.75;5386837;26;20454;-69
2024/05/02 03:33:26;;;;;;;5.93;5.50;;;;;;;15.40;88.18;98688.78;5383738;26;20284;-69
2024/05/02 03:35:52;;;;;;;6.70;5.40;;;;;;;14.92;91.36;98681.81;5360914;26;20821;-69
2024/05/02 03:38:17;;;;;;;5.70;5.30;;;;;;;15.00;91.10;98680.44;5350831;26;20248;-69
2024/05/02 03:40:42;;;;;;;7.23;6.60;;;;;;;14.74;92.41;98680.41;5363624;26;20228;-69
2024/05/02 03:43:07;;;;;;;7.67;5.30;;;;;;;14.91;91.58;98674.59;5369573;26;20243;-69
2024/05/02 03:45:33;;;;;;;6.40;5.90;;;;;;;15.08;90.12;98654.88;5383509;26;20751;-69
2024/05/02 03:47:58;;;;;;;8.23;6.40;;;;;;;15.57;nan;98690.47;5382868;26;20322;-69
2024/05/02 03:50:24;;;;;;;5.57;5.00;;;;;;;15.58;87.96;98684.63;5383448;26;20244;-69
2024/05/02 03:52:49;;;;;;;5.70;5.30;;;;;;;15.91;86.36;98690.66;5383590;26;20232;-69
2024/05/02 03:55:14;;;;;;;5.77;5.27;;;;;;;16.08;85.85;98678.09;5383035;26;20232;-69
2024/05/02 03:57:40;;;;;;;5.70;5.20;;;;;;;16.09;85.02;98668.59;5380992;26;20240;-69
2024/05/02 04:00:05;;;;;;;6.10;5.50;;;;;;;15.50;87.37;98668.47;5365533;26;20270;-69
2024/05/02 04:02:31;;;;;;;6.90;6.20;;;;;;;15.39;88.06;98689.91;5383276;26;20718;-69
2024/05/02 04:04:56;;;;;;;6.00;5.60;;;;;;;14.89;90.90;98690.72;5360989;26;20615;-69
2024/05/02 04:07:21;;;;;;;5.77;5.27;;;;;;;14.96;90.97;98691.28;5370870;26;20229;-69
2024/05/02 04:09:46;;;;;;;7.07;6.17;;;;;;;14.99;91.70;98679.59;5375015;26;20228;-67
2024/05/02 04:12:14;;;;;;;9.70;6.20;;;;;;;14.62;93.06;98677.06;5382942;26;20710;-67
2024/05/02 04:14:39;;;;;;;6.67;6.07;;;;;;;15.03;92.17;98675.16;5382304;26;20228;-69
2024/05/02 04:17:05;;;;;;;8.17;5.93;;;;;;;15.63;88.22;98687.38;5382911;26;20506;-68
2024/05/02 04:19:30;;;;;;;8.53;6.60;;;;;;;15.44;88.04;98675.97;5382768;26;20336;-69
2024/05/02 04:21:55;;;;;;;5.93;5.40;;;;;;;15.53;88.47;98690.16;5382465;26;20275;-69
2024/05/02 04:24:20;;;;;;;7.33;6.60;;;;;;;14.81;90.94;98682.94;5370292;26;20719;-69
2024/05/02 04:26:46;;;;;;;6.63;5.90;;;;;;;15.35;89.63;98682.38;5359462;26;20229;-69
2024/05/02 04:29:11;;;;;;;8.67;6.33;;;;;;;15.71;87.04;98692.41;5382536;26;20278;-69
2024/05/02 04:31:36;;;;;;;9.13;6.17;;;;;;;15.85;86.10;98686.25;5363574;26;20279;-69
2024/05/02 04:34:03;;;;;;;6.80;6.30;;;;;;;16.16;85.15;98691.44;5351953;26;20255;-69
2024/05/02 04:36:29;;;;;;;6.33;5.53;;;;;;;16.08;84.58;98683.66;5382707;26;20283;-69
2024/05/02 04:38:54;;;;;;;6.60;6.10;;;;;;;15.46;86.78;98675.69;5382615;26;20447;-69
2024/05/02 04:41:19;;;;;;;16.07;14.37;;;;;;;14.80;90.94;98688.78;5382313;26;20236;-69
2024/05/02 04:43:45;;;;;;;14.60;13.13;;;;;;;14.78;91.91;98683.47;5382751;26;20685;-69
2024/05/02 04:46:10;;;;;;;13.13;11.83;;;;;;;14.57;92.91;98682.59;5384470;26;20337;-69
2024/05/02 04:48:36;;;;;;;13.53;12.17;;;;;;;14.30;93.52;98668.88;5387188;26;20473;-69
2024/05/02 04:51:01;;;;;;;18.70;16.90;;;;;;;14.18;95.30;98692.44;5382614;26;20231;-69
2024/05/02 04:53:27;;;;;;;17.87;16.47;;;;;;;14.20;95.80;98679.97;5375839;26;20244;-69
2024/05/02 04:55:53;;;;;;;10.97;10.10;;;;;;;14.14;96.06;98678.25;5381754;26;20679;-69
2024/05/02 04:58:18;;;;;;;9.20;8.57;;;;;;;14.41;94.70;98686.44;5382272;26;20459;-70
2024/05/02 05:00:44;;;;;;;10.57;7.37;;;;;;;14.18;95.23;98670.22;5381636;26;20266;-69
2024/05/02 05:03:09;;;;;;;8.60;6.80;;;;;;;14.33;94.86;98703.63;5377094;26;20626;-69
2024/05/02 05:05:34;;;;;;;7.13;6.50;;;;;;;14.28;95.72;98711.91;5382079;26;20289;-69
2024/05/02 05:08:00;;;;;;;6.50;6.00;;;;;;;14.36;95.85;98705.84;5382373;26;20613;-69
2024/05/02 05:10:25;;;;;;;6.83;6.33;;;;;;;14.48;95.62;98708.41;5365517;26;20236;-69
2024/05/02 05:12:51;;;;;;;7.80;6.80;;;;;;;15.25;91.90;98707.44;5382134;26;20282;-69
2024/05/02 05:15:16;;;;;;;9.57;6.40;;;;;;;15.39;90.63;98698.25;5382373;26;20278;-69
2024/05/02 05:17:41;;;;;;;6.50;5.90;;;;;;;15.91;88.36;98699.03;5379573;26;20695;-69
2024/05/02 05:20:07;;;;;;;6.90;6.40;;;;;;;15.87;88.34;98703.50;5365781;26;20337;-69
2024/05/02 05:22:32;;;;;;;6.67;6.10;;;;;;;16.46;86.23;98704.41;5356180;26;20271;-69
2024/05/02 05:24:57;;;;;;;9.27;7.50;;;;;;;15.96;86.17;98676.72;5382000;26;20236;-69
2024/05/02 05:27:22;;;;;;;8.13;5.70;;;;;;;16.48;84.83;98704.13;5381935;26;20240;-69
2024/05/02 05:29:48;;;;;;;6.40;5.80;;;;;;;16.32;85.85;98716.47;5368402;26;20271;-69
2024/05/02 05:32:13;;;;;;;6.30;5.80;;;;;;;15.97;87.40;98706.25;5380288;26;20701;-69
2024/05/02 05:34:38;;;;;;;8.40;6.77;;;;;;;15.58;90.24;98700.50;5381820;26;20228;-69
2024/05/02 05:37:05;;;;;;;7.10;6.50;;;;;;;15.51;90.89;98703.53;5382133;26;20228;-69
2024/05/02 05:39:30;;;;;;;7.90;7.30;;;;;;;15.84;89.18;98685.41;5381197;26;20307;-69
2024/05/02 05:41:55;;;;;;;7.90;7.10;;;;;;;15.99;89.28;98698.47;5373001;26;20458;-69
2024/05/02 05:44:21;;;;;;;6.17;5.60;;;;;;;16.07;87.43;98687.56;5381762;26;20701;-69
2024/05/02 05:46:46;;;;;;;6.27;5.77;;;;;;;16.18;86.78;98692.00;5376525;26;20235;-69
2024/05/02 05:49:11;;;;;;;6.63;5.80;;;;;;;16.75;85.51;98700.94;5381768;26;20232;-69
2024/05/02 05:51:36;;;;;;;10.07;7.03;;;;;;;16.54;85.41;98678.72;5359080;26;20240;-69
2024/05/02 05:54:02;;;;;;;6.20;5.70;;;;;;;17.10;85.07;98703.50;5381792;26;20232;-69
2024/05/02 05:56:27;;;;;;;5.77;5.13;;;;;;;17.59;83.31;98702.50;5381116;26;20705;-70
2024/05/02 05:58:52;;;;;;;9.00;5.00;;;;;;;18.18;80.69;98705.00;5381623;26;20283;-70
2024/05/02 06:01:18;;;;;;;6.67;4.90;;;;;;;18.59;79.25;98708.16;5375642;26;20350;-70
2024/05/02 06:03:43;;;;;;;7.07;5.60;;;;;;;18.74;80.23;98703.50;5381684;26;20243;-70
2024/05/02 06:06:08;;;;;;;5.23;4.50;;;;;;;18.73;79.62;98702.66;5381608;26;20604;-70
2024/05/02 06:08:33;;;;;;;4.90;4.53;;;;;;;18.96;78.83;98717.72;5372611;26;20330;-70
2024/05/02 06:10:59;;;;;;;5.93;4.93;;;;;;;19.10;78.29;98715.81;5336270;26;20272;-70
2024/05/02 06:13:24;;;;;;;4.60;4.30;;;;;;;19.41;76.92;98707.78;5380027;26;20767;-70
2024/05/02 06:15:49;;;;;;;6.70;4.50;;;;;;;19.62;75.12;98711.09;5381418;26;20278;-70
2024/05/02 06:18:15;;;;;;;6.37;4.83;;;;;;;19.44;74.29;98709.13;5319578;26;20237;-70
2024/05/02 06:20:40;;;;;;;5.37;4.60;;;;;;;19.58;72.64;98707.25;5350268;26;20580;-70
2024/05/02 06:23:06;;;;;;;4.10;3.80;;;;;;;20.08;71.71;98705.50;5381234;26;20838;-70
2024/05/02 06:25:32;;;;;;;5.13;3.83;;;;;;;20.09;71.01;98690.34;5381233;26;20721;-70
2024/05/02 06:27:57;;;;;;;4.93;4.23;;;;;;;20.43;71.37;98709.59;5381010;26;20506;-70
2024/05/02 06:30:22;;;;;;;5.33;4.13;;;;;;;20.18;70.84;98699.66;5376865;26;20275;-70
2024/05/02 06:32:48;;;;;;;5.50;4.60;;;;;;;20.58;71.01;98703.66;5381260;26;20227;-70
2024/05/02 06:35:15;;;;;;;4.23;3.93;;;;;;;20.57;70.44;98707.63;5379942;26;20314;-70
2024/05/02 06:37:40;;;;;;;6.10;4.50;;;;;;;20.55;70.26;98712.69;5359887;26;20231;-70
2024/05/02 06:40:06;;;;;;;5.77;4.43;;;;;;;20.43;69.29;98709.59;5377410;26;20446;-70
2024/05/02 06:42:31;;;;;;;4.73;4.33;;;;;;;20.31;71.06;98710.09;5365424;26;20332;-70
2024/05/02 06:44:56;;;;;;;5.00;3.80;;;;;;;20.38;71.39;98706.06;5349878;26;20248;-70
2024/05/02 06:47:21;;;;;;;4.47;4.07;;;;;;;20.47;70.61;98701.41;5380520;26;20232;-70
2024/05/02 06:49:47;;;;;;;5.37;4.20;;;;;;;20.88;71.24;98707.78;5350006;26;20312;-70
2024/05/02 06:52:12;;;;;;;4.50;4.10;;;;;;;21.06;70.49;98712.41;5381091;26;20279;-70
2024/05/02 06:54:37;;;;;;;3.73;3.53;;;;;;;21.42;70.84;98708.75;5352608;26;20247;-70
2024/05/02 06:57:03;;;;;;;4.63;4.07;;;;;;;21.48;68.08;98709.47;5384070;26;20231;-70
2024/05/02 06:59:28;;;;;;;6.80;4.20;;;;;;;21.67;69.00;98708.16;5367260;26;20243;-70
2024/05/02 07:01:53;;;;;;;4.53;4.20;;;;;;;21.65;66.13;98704.00;5352852;26;20239;-70
2024/05/02 07:04:19;;;;;;;5.00;4.13;;;;;;;22.04;65.62;98700.44;5383883;26;20228;-70
2024/05/02 07:06:44;;;;;;;4.40;3.93;;;;;;;21.74;64.07;98707.69;5383932;26;20693;-70
2024/05/02 07:09:09;;;;;;;4.93;3.63;;;;;;;21.90;63.14;98697.69;5384130;26;20232;-70
2024/05/02 07:11:35;;;;;;;10.57;3.93;;;;;;;22.06;65.45;98703.75;5383779;26;20293;-70
2024/05/02 07:14:01;;;;;;;3.80;3.50;;;;;;;22.06;62.38;98698.97;5382027;26;20348;-70
2024/05/02 07:16:26;;;;;;;3.73;3.43;;;;;;;22.24;61.55;98676.53;5363339;26;20236;-70
2024/05/02 07:18:53;;;;;;;5.53;3.70;;;;;;;21.93;61.90;98699.03;5383470;26;21078;-70
2024/05/02 07:21:19;;;;;;;6.70;4.17;;;;;;;22.32;60.89;98695.44;5382079;26;20266;-70
2024/05/02 07:23:44;;;;;;;4.20;3.80;;;;;;;22.45;61.67;98684.09;5383724;26;20477;-70
2024/05/02 07:26:09;;;;;;;4.40;4.00;;;;;;;21.34;62.57;98690.72;5383863;26;20818;-70
2024/05/02 07:28:34;;;;;;;4.10;3.80;;;;;;;22.04;61.21;98689.19;5383700;26;20279;-70
2024/05/02 07:31:00;;;;;;;4.40;4.00;;;;;;;22.06;60.15;98676.47;5383398;26;20813;-70
2024/05/02 07:33:25;;;;;;;6.17;3.90;;;;;;;22.32;59.15;98684.19;5383640;26;20228;-70
2024/05/02 07:35:50;;;;;;;5.40;3.83;;;;;;;22.50;60.07;98685.91;5361273;26;20241;-70
2024/05/02 07:38:17;;;;;;;4.43;4.13;;;;;;;22.77;59.78;98688.47;5371628;26;20271;-70
2024/05/02 07:40:42;;;;;;;3.90;3.70;;;;;;;22.60;59.29;98698.88;5383292;26;20231;-70
2024/05/02 07:43:07;;;;;;;3.83;3.53;;;;;;;21.99;59.76;98670.50;5381295;26;20517;-70
2024/05/02 07:45:33;;;;;;;4.20;3.80;;;;;;;22.59;58.50;98686.78;5352581;26;20353;-70
2024/05/02 07:47:58;;;;;;;4.80;4.50;;;;;;;22.36;58.50;98683.22;5385961;26;20766;-70
2024/05/02 07:50:25;;;;;;;7.13;4.23;;;;;;;22.12;59.26;98682.78;5383372;26;20239;-70
2024/05/02 07:52:50;;;;;;;3.67;3.47;;;;;;;21.99;60.37;98689.31;5383289;26;20605;-70
2024/05/02 07:55:16;;;;;;;3.73;3.53;;;;;;;22.51;59.34;98683.91;5383224;26;20553;-70
2024/05/02 07:57:41;;;;;;;5.23;3.90;;;;;;;22.66;57.54;98673.03;5383337;26;20228;-70
2024/05/02 08:00:07;;;;;;;4.53;4.10;;;;;;;22.05;60.02;98677.63;5383183;26;20227;-69
2024/05/02 08:02:32;;;;;;;4.83;3.90;;;;;;;22.44;62.20;98681.59;5352023;26;20271;-70
2024/05/02 08:04:57;;;;;;;5.13;4.17;;;;;;;21.98;59.03;98685.69;5382321;26;20915;-70
2024/05/02 08:07:23;;;;;;;4.50;3.90;;;;;;;22.98;55.89;98679.41;5346487;26;20244;-69
2024/05/02 08:09:49;;;;;;;5.90;4.20;;;;;;;22.32;57.20;98685.00;5382983;26;20759;-69
2024/05/02 08:12:14;;;;;;;4.60;4.30;;;;;;;21.86;58.64;98667.72;5347951;26;20267;-70
2024/05/02 08:14:39;;;;;;;6.37;4.00;;;;;;;22.52;56.57;98663.06;5334071;26;20232;-70
2024/05/02 08:17:05;;;;;;;5.43;4.63;;;;;;;22.70;56.34;98665.59;5337061;26;20236;-70
2024/05/02 08:19:30;;;;;;;4.67;4.30;;;;;;;22.23;55.56;98672.91;5350751;26;20236;-70
2024/05/02 08:21:55;;;;;;;5.77;3.73;;;;;;;22.52;54.81;98663.06;5383060;26;20258;-70
2024/05/02 08:24:20;;;;;;;5.10;4.20;;;;;;;22.19;56.93;98668.25;5382831;26;20244;-70
2024/05/02 08:26:46;;;;;;;4.77;4.37;;;;;;;22.56;55.19;98666.88;5382354;26;20231;-70
2024/05/02 08:29:12;;;;;;;5.30;4.80;;;;;;;22.08;56.85;98667.72;5372761;26;20708;-70
2024/05/02 08:31:37;;;;;;;4.50;4.10;;;;;;;22.53;56.50;98659.09;5378430;26;20504;-70
2024/05/02 08:34:03;;;;;;;5.03;4.63;;;;;;;22.12;56.49;98651.03;5351861;26;20254;-70
2024/05/02 08:36:28;;;;;;;4.60;4.20;;;;;;;22.33;56.65;98660.50;5382789;26;20325;-70
2024/05/02 08:38:53;;;;;;;6.83;4.70;;;;;;;22.36;56.15;98657.06;5382835;26;20228;-70
2024/05/02 08:41:19;;;;;;;4.40;4.10;;;;;;;22.85;55.16;98657.88;5382349;26;20328;-70
2024/05/02 08:43:47;;;;;;;5.17;4.77;;;;;;;23.99;52.48;98653.44;5351744;26;20584;-70
2024/05/02 08:46:18;;;;;;;4.37;4.07;;;;;;;22.79;54.72;98665.63;5362323;26;20319;-70
2024/05/02 08:48:45;;;;;;;5.13;4.63;;;;;;;23.79;53.37;98659.84;5345884;26;20515;-70
2024/05/02 08:51:12;;;;;;;5.13;4.47;;;;;;;23.32;53.29;98670.97;5364304;26;20558;-69
2024/05/02 08:53:37;;;;;;;4.77;4.40;;;;;;;24.28;50.36;98666.84;5382497;26;20907;-70
2024/05/02 08:56:05;;;;;;;4.80;4.50;;;;;;;24.99;49.55;98675.41;5380776;26;20474;-70
2024/05/02 08:58:31;;;;;;;3.80;3.50;;;;;;;24.96;48.71;98675.25;5382694;26;20340;-70
2024/05/02 09:00:57;;;;;;;4.30;3.67;;;;;;;25.21;49.90;98669.41;5351390;26;20877;-70
2024/05/02 09:03:23;;;;;;;4.70;4.30;;;;;;;23.65;51.34;98659.19;5369045;26;20657;-70
2024/05/02 09:05:48;;;;;;;4.03;3.73;;;;;;;24.92;48.96;98660.13;5361250;26;20548;-70
2024/05/02 09:08:14;;;;;;;4.50;3.97;;;;;;;25.49;47.92;98671.69;5382590;26;20228;-70
2024/05/02 09:10:39;;;;;;;3.83;3.50;;;;;;;23.74;52.04;98655.19;5351173;26;20697;-70
2024/05/02 09:13:05;;;;;;;4.87;4.57;;;;;;;23.10;51.74;98657.88;5382354;26;20345;-70
2024/05/02 09:15:31;;;;;;;4.90;4.17;;;;;;;24.04;50.80;98652.44;5382202;26;20228;-70
2024/05/02 09:17:57;;;;;;;6.07;4.00;;;;;;;25.11;47.47;98671.81;5382179;26;20250;-70
2024/05/02 09:20:23;;;;;;;4.33;4.03;;;;;;;23.54;50.15;98671.97;5381621;26;20965;-68
2024/05/02 09:22:48;;;;;;;4.43;4.13;;;;;;;23.90;51.95;98661.13;5353546;26;20325;-67
2024/05/02 09:25:16;;;;;;;4.13;3.83;;;;;;;24.15;50.64;98668.66;5382239;26;20466;-67
2024/05/02 09:27:42;;;;;;;6.00;4.10;;;;;;;24.36;50.92;98670.78;5381283;26;20274;-67
2024/05/02 09:30:08;;;;;;;5.27;4.40;;;;;;;24.91;49.21;98673.44;5366556;26;20508;-68
2024/05/02 09:32:34;;;;;;;4.43;4.13;;;;;;;24.16;49.17;98672.31;5381729;26;20462;-68
2024/05/02 09:34:59;;;;;;;7.50;4.70;;;;;;;24.08;48.80;98661.91;5372652;26;20243;-68
2024/05/02 09:37:33;;;;;;;4.10;3.73;;;;;;;25.59;45.27;98648.63;5381636;26;20287;-67
2024/05/02 09:40:03;;;;;;;4.40;4.03;;;;;;;25.58;45.49;98656.28;5381543;26;20274;-67
2024/05/02 09:42:31;;;;;;;4.40;4.00;;;;;;;24.52;47.81;98652.09;5350461;26;20804;-67
2024/05/02 09:45:00;;;;;;;4.50;3.80;;;;;;;25.32;46.27;98643.56;5359232;26;20499;-67
2024/05/02 09:47:35;;;;;;;5.23;4.57;;;;;;;24.98;45.82;98665.28;5380616;26;20515;-68
2024/05/02 09:50:04;;;;;;;3.87;3.57;;;;;;;24.86;48.40;98668.81;5362820;26;20517;-67
2024/05/02 09:52:31;;;;;;;4.13;3.73;;;;;;;24.98;47.92;98670.09;5378706;26;20569;-67
2024/05/02 09:54:57;;;;;;;4.40;3.70;;;;;;;25.91;45.64;98667.63;5350593;26;20517;-68
2024/05/02 09:57:23;;;;;;;5.37;4.03;;;;;;;26.39;43.69;98668.09;5350533;26;20521;-68
2024/05/02 09:59:49;;;;;;;4.97;3.87;;;;;;;27.19;46.17;98662.59;5350469;26;20462;-68
2024/05/02 10:02:17;;;;;;;5.20;3.73;;;;;;;27.39;46.60;98664.41;5362269;26;20235;-68
2024/05/02 10:04:50;;;;;;;4.13;3.83;;;;;;;27.39;44.54;98664.41;5381047;26;20577;-68
2024/05/02 10:07:28;;;;;;;7.63;4.27;;;;;;;27.51;42.97;98652.19;5381436;26;20511;-68
2024/05/02 10:10:12;;;;;;;4.17;3.20;;;;;;;28.01;42.12;98666.63;5350399;26;20474;-68
2024/05/02 10:13:02;;;;;;;3.80;3.40;;;;;;;28.14;42.72;98664.53;5379461;26;20482;-68
2024/05/02 10:15:30;;;;;;;4.30;3.90;;;;;;;28.83;39.41;98674.50;5362174;26;20454;-68
2024/05/02 10:17:56;;;;;;;6.60;3.97;;;;;;;28.73;38.64;98669.31;5366452;26;20567;-68
2024/05/02 10:20:23;;;;;;;4.40;3.57;;;;;;;29.21;40.17;98664.38;5374432;26;20474;-68
2024/05/02 10:22:48;;;;;;;4.70;4.23;;;;;;;28.43;38.73;98659.63;5350284;26;20240;-68
2024/05/02 10:25:27;;;;;;;3.80;3.40;;;;;;;28.11;41.14;98662.44;5381176;26;20569;-68
2024/05/02 10:27:54;;;;;;;4.00;3.50;;;;;;;28.38;40.47;98646.56;5349068;26;20287;-68
2024/05/02 10:30:22;;;;;;;4.67;3.87;;;;;;;28.58;39.34;98667.31;5381416;26;20551;-68
2024/05/02 10:32:47;;;;;;;4.10;3.80;;;;;;;26.32;44.57;98654.50;5381182;26;20510;-68
2024/05/02 10:35:17;;;;;;;6.90;4.30;;;;;;;25.45;44.93;98648.91;5332858;26;20814;-68
2024/05/02 10:37:44;;;;;;;4.10;3.60;;;;;;;26.17;43.99;98650.31;5327403;26;20237;-68
2024/05/02 10:40:15;;;;;;;4.20;3.40;;;;;;;26.58;44.03;98652.13;5342632;26;20458;-68
2024/05/02 10:42:40;;;;;;;4.67;4.10;;;;;;;26.11;44.95;98645.25;5380745;26;20453;-68
2024/05/02 10:45:07;;;;;;;4.57;4.17;;;;;;;26.63;44.14;98642.56;5380494;26;20514;-68
2024/05/02 10:47:32;;;;;;;6.17;4.33;;;;;;;25.77;46.13;98640.81;5383245;26;20696;-68
2024/05/02 10:49:58;;;;;;;4.67;4.27;;;;;;;25.61;47.03;98617.16;5380698;26;20587;-67
2024/05/02 10:52:24;;;;;;;5.67;4.40;;;;;;;25.84;47.97;98633.38;5379076;26;20239;-68
2024/05/02 10:54:50;;;;;;;4.23;3.83;;;;;;;26.59;45.01;98635.97;5373936;26;20238;-66
2024/05/02 10:57:16;;;;;;;5.40;4.50;;;;;;;26.57;44.35;98649.69;5365500;26;20571;-68
2024/05/02 10:59:42;;;;;;;6.70;3.77;;;;;;;27.98;42.43;98638.97;5380454;26;20565;-68
2024/05/02 11:02:07;;;;;;;4.27;3.80;;;;;;;29.05;40.29;98651.03;5365663;26;20275;-68
2024/05/02 11:04:32;;;;;;;4.40;4.00;;;;;;;26.78;45.39;98641.84;5380432;26;20228;-68
2024/05/02 11:06:58;;;;;;;4.60;4.00;;;;;;;26.94;43.15;98654.16;5380342;26;20675;-68
2024/05/02 11:09:23;;;;;;;4.10;3.90;;;;;;;27.12;43.96;98636.88;5380481;26;20231;-68
2024/05/02 11:11:53;;;;;;;5.00;4.60;;;;;;;25.89;44.50;98635.19;5363629;26;20279;-68
2024/05/02 11:14:19;;;;;;;3.70;3.40;;;;;;;26.96;42.54;98643.28;5380523;26;20299;-68
2024/05/02 11:16:45;;;;;;;5.33;4.30;;;;;;;28.53;39.40;98642.88;5380354;26;20458;-68
2024/05/02 11:19:11;;;;;;;11.30;4.13;;;;;;;29.74;38.78;98662.72;5380089;26;20796;-68
2024/05/02 11:21:37;;;;;;;5.50;3.80;;;;;;;30.48;36.76;98649.06;5375051;26;20282;-68
2024/05/02 11:24:03;;;;;;;9.23;3.90;;;;;;;30.63;37.20;98647.31;5377604;26;20529;-68
2024/05/02 11:26:31;;;;;;;3.77;3.50;;;;;;;31.05;37.65;98647.16;5349623;26;20508;-69
2024/05/02 11:28:56;;;;;;;3.53;3.13;;;;;;;31.22;37.15;98648.66;5351614;26;20248;-69
2024/05/02 11:31:22;;;;;;;4.87;3.80;;;;;;;30.14;37.11;98647.25;5379236;26;20598;-69